createdAt,value
2017-08-22T00:00:33.524Z,81.40
2017-08-22T00:03:01.018Z,81.80
2017-08-22T00:05:28.525Z,82.30
2017-08-22T00:07:56.020Z,82.80
2017-08-22T00:10:23.516Z,83.10
2017-08-22T00:12:50.996Z,83.20
2017-08-22T00:15:18.495Z,82.90
2017-08-22T00:17:45.972Z,83.20
2017-08-22T00:20:13.469Z,83.20
2017-08-22T00:22:40.949Z,83.70
2017-08-22T00:25:08.452Z,83.80
2017-08-22T00:27:35.932Z,83.60
2017-08-22T00:30:03.428Z,83.90
2017-08-22T00:32:30.903Z,84.00
2017-08-22T00:34:58.403Z,84.00
2017-08-22T00:37:25.883Z,83.90
2017-08-22T00:39:53.380Z,83.90
2017-08-22T00:42:20.859Z,83.70
2017-08-22T00:44:48.333Z,83.90
2017-08-22T00:47:15.829Z,84.40
2017-08-22T00:49:43.320Z,84.50
2017-08-22T00:52:10.819Z,84.40
2017-08-22T00:54:38.300Z,84.10
2017-08-22T00:57:05.795Z,84.00
2017-08-22T00:59:33.267Z,84.40
2017-08-22T01:02:01.313Z,84.10
2017-08-22T01:04:28.800Z,84.10
2017-08-22T01:06:56.297Z,84.00
2017-08-22T01:09:23.767Z,84.40
2017-08-22T01:11:51.263Z,84.90
2017-08-22T01:14:18.739Z,85.10
2017-08-22T01:16:46.235Z,85.20
2017-08-22T01:19:13.720Z,85.90
2017-08-22T01:21:41.210Z,85.50
2017-08-22T01:24:08.692Z,85.50
2017-08-22T01:26:36.192Z,85.40
2017-08-22T01:29:03.668Z,85.50
2017-08-22T01:31:31.159Z,85.70
2017-08-22T01:33:58.630Z,86.50
2017-08-22T01:36:26.128Z,87.20
2017-08-22T01:38:53.604Z,87.40
2017-08-22T01:41:21.101Z,87.90
2017-08-22T01:43:48.579Z,87.80
2017-08-22T01:46:16.056Z,88.00
2017-08-22T01:48:43.560Z,88.50
2017-08-22T01:51:11.036Z,89.70
2017-08-22T01:53:38.535Z,89.40
2017-08-22T01:56:06.008Z,89.20
2017-08-22T01:58:33.499Z,88.80
2017-08-22T02:01:00.976Z,88.50
2017-08-22T02:03:28.475Z,88.40
2017-08-22T02:05:55.979Z,88.50
2017-08-22T02:08:23.485Z,88.50
2017-08-22T02:10:50.967Z,88.50
2017-08-22T02:13:18.463Z,88.60
2017-08-22T02:15:45.935Z,89.00
2017-08-22T02:18:13.432Z,89.70
2017-08-22T02:20:40.918Z,89.40
2017-08-22T02:23:08.411Z,90.10
2017-08-22T02:25:35.909Z,89.50
2017-08-22T02:28:03.412Z,89.60
2017-08-22T02:30:30.891Z,89.60
2017-08-22T02:32:58.392Z,89.80
2017-08-22T02:35:25.876Z,90.00
2017-08-22T02:37:53.378Z,90.40
2017-08-22T02:40:20.858Z,90.30
2017-08-22T02:42:48.335Z,90.50
2017-08-22T02:45:15.828Z,90.40
2017-08-22T02:47:43.306Z,90.50
2017-08-22T02:50:10.808Z,90.30
2017-08-22T02:52:38.293Z,90.30
2017-08-22T02:55:05.791Z,90.50
2017-08-22T02:57:33.269Z,90.50
2017-08-22T03:00:00.780Z,90.40
2017-08-22T03:02:28.259Z,90.50
2017-08-22T03:04:55.756Z,90.40
2017-08-22T03:07:23.233Z,90.40
2017-08-22T03:09:50.736Z,90.40
2017-08-22T03:12:18.216Z,90.30
2017-08-22T03:14:45.716Z,90.50
2017-08-22T03:17:13.192Z,90.60
2017-08-22T03:19:40.692Z,90.60
2017-08-22T03:22:08.169Z,90.80
2017-08-22T03:24:35.664Z,90.90
2017-08-22T03:27:03.139Z,90.80
2017-08-22T03:29:30.641Z,90.90
2017-08-22T03:31:58.125Z,90.70
2017-08-22T03:34:25.620Z,90.50
2017-08-22T03:36:53.103Z,90.80
2017-08-22T03:39:20.595Z,90.90
2017-08-22T03:41:48.073Z,90.80
2017-08-22T03:44:15.582Z,91.00
2017-08-22T03:46:43.078Z,90.90
2017-08-22T03:49:10.544Z,91.10
2017-08-22T03:51:38.046Z,91.10
2017-08-22T03:54:05.524Z,91.00
2017-08-22T03:56:33.016Z,91.20
2017-08-22T03:59:00.484Z,91.20
2017-08-22T04:01:27.975Z,91.10
2017-08-22T04:03:55.447Z,91.10
2017-08-22T04:06:22.937Z,91.00
2017-08-22T04:08:50.415Z,91.10
2017-08-22T04:11:17.911Z,91.30
2017-08-22T04:13:45.396Z,91.30
2017-08-22T04:16:12.892Z,91.30
2017-08-22T04:18:40.366Z,91.30
2017-08-22T04:21:07.864Z,91.20
2017-08-22T04:23:35.343Z,91.20
2017-08-22T04:26:02.844Z,91.10
2017-08-22T04:28:30.352Z,91.00
2017-08-22T04:30:57.903Z,91.30
2017-08-22T04:33:25.500Z,91.20
2017-08-22T04:35:53.000Z,91.10
2017-08-22T04:38:20.480Z,91.00
2017-08-22T04:40:47.975Z,90.90
2017-08-22T04:43:15.444Z,90.80
2017-08-22T04:45:42.916Z,90.70
2017-08-22T04:48:10.412Z,90.80
2017-08-22T04:50:37.896Z,90.90
2017-08-22T04:53:05.391Z,90.70
2017-08-22T04:55:32.872Z,90.90
2017-08-22T04:58:00.367Z,91.00
2017-08-22T05:00:27.848Z,91.00
2017-08-22T05:02:55.349Z,91.00
2017-08-22T05:05:22.823Z,91.10
2017-08-22T05:07:50.315Z,90.90
2017-08-22T05:10:17.795Z,90.90
2017-08-22T05:12:45.292Z,90.80
2017-08-22T05:15:12.768Z,90.90
2017-08-22T05:17:40.272Z,90.90
2017-08-22T05:20:07.747Z,90.80
2017-08-22T05:22:35.245Z,90.80
2017-08-22T05:25:02.731Z,90.80
2017-08-22T05:27:30.228Z,90.80
2017-08-22T05:29:57.700Z,90.80
2017-08-22T05:32:25.196Z,91.30
2017-08-22T05:34:52.688Z,91.20
2017-08-22T05:37:20.192Z,91.40
2017-08-22T05:39:47.671Z,91.10
2017-08-22T05:42:15.167Z,90.70
2017-08-22T05:44:42.648Z,90.80
2017-08-22T05:47:10.172Z,90.80
2017-08-22T05:49:37.643Z,90.90
2017-08-22T05:52:05.120Z,90.90
2017-08-22T05:54:32.616Z,91.20
2017-08-22T05:57:00.096Z,91.30
2017-08-22T05:59:27.598Z,91.10
2017-08-22T06:01:55.070Z,90.90
2017-08-22T06:04:22.573Z,91.00
2017-08-22T06:06:50.052Z,91.10
2017-08-22T06:09:17.549Z,91.20
2017-08-22T06:11:45.029Z,90.90
2017-08-22T06:14:12.529Z,90.80
2017-08-22T06:16:40.352Z,90.70
2017-08-22T06:19:07.844Z,90.70
2017-08-22T06:21:35.323Z,90.70
2017-08-22T06:24:02.828Z,90.50
2017-08-22T06:26:30.312Z,90.00
2017-08-22T06:28:57.814Z,89.40
2017-08-22T06:31:25.284Z,89.60
2017-08-22T06:33:52.787Z,89.00
2017-08-22T06:36:20.260Z,88.80
2017-08-22T06:38:47.760Z,88.80
2017-08-22T06:41:15.239Z,88.50
2017-08-22T06:43:42.747Z,88.70
2017-08-22T06:46:10.223Z,88.70
2017-08-22T06:48:37.704Z,88.80
2017-08-22T06:51:05.202Z,87.80
2017-08-22T06:53:32.679Z,85.90
2017-08-22T06:56:00.187Z,85.70
2017-08-22T06:58:27.665Z,85.90
2017-08-22T07:00:55.169Z,85.10
2017-08-22T07:03:22.643Z,84.10
2017-08-22T07:05:50.136Z,82.80
2017-08-22T07:08:17.616Z,82.30
2017-08-22T07:10:45.108Z,81.60
2017-08-22T07:13:12.604Z,81.60
2017-08-22T07:15:40.096Z,80.90
2017-08-22T07:18:07.570Z,80.00
2017-08-22T07:20:35.060Z,79.20
2017-08-22T07:23:02.544Z,77.70
2017-08-22T07:25:30.036Z,76.20
2017-08-22T07:27:57.524Z,75.60
2017-08-22T07:30:25.036Z,74.40
2017-08-22T07:32:52.518Z,74.20
2017-08-22T07:35:20.047Z,74.00
2017-08-22T07:37:47.523Z,73.80
2017-08-22T07:40:15.023Z,73.60
2017-08-22T07:42:42.499Z,73.80
2017-08-22T07:45:09.991Z,73.60
2017-08-22T07:47:37.472Z,73.50
2017-08-22T07:50:04.956Z,73.30
2017-08-22T07:52:32.447Z,73.70
2017-08-22T07:54:59.924Z,73.70
2017-08-22T07:57:27.426Z,74.00
2017-08-22T07:59:54.904Z,74.00
2017-08-22T08:02:22.396Z,73.00
2017-08-22T08:04:49.875Z,72.00
2017-08-22T08:07:17.371Z,72.10
2017-08-22T08:09:44.853Z,72.60
2017-08-22T08:12:12.348Z,72.70
2017-08-22T08:14:39.825Z,72.40
2017-08-22T08:17:07.315Z,72.10
2017-08-22T08:19:34.783Z,71.30
2017-08-22T08:22:02.280Z,70.10
2017-08-22T08:24:29.757Z,68.70
2017-08-22T08:26:57.251Z,67.80
2017-08-22T08:29:24.725Z,67.70
2017-08-22T08:31:52.229Z,68.00
2017-08-22T08:34:19.712Z,69.20
2017-08-22T08:36:47.207Z,68.30
2017-08-22T08:39:14.684Z,68.90
2017-08-22T08:41:42.184Z,69.40
2017-08-22T08:44:09.664Z,66.70
2017-08-22T08:46:37.171Z,67.70
2017-08-22T08:49:04.648Z,69.00
2017-08-22T08:51:32.128Z,69.50
2017-08-22T08:53:59.631Z,69.70
2017-08-22T08:56:27.112Z,69.00
2017-08-22T08:58:54.608Z,68.90
2017-08-22T09:01:22.084Z,68.60
2017-08-22T09:03:49.571Z,68.10
2017-08-22T09:06:17.048Z,68.40
2017-08-22T09:08:44.544Z,68.20
2017-08-22T09:11:12.019Z,67.90
2017-08-22T09:13:39.522Z,68.50
2017-08-22T09:16:07.004Z,68.20
2017-08-22T09:18:34.508Z,68.40
2017-08-22T09:21:02.000Z,68.30
2017-08-22T09:23:29.491Z,66.70
2017-08-22T09:25:56.972Z,64.70
2017-08-22T09:28:24.473Z,64.20
2017-08-22T09:30:51.952Z,63.60
2017-08-22T09:33:19.447Z,65.00
2017-08-22T09:35:46.924Z,64.70
2017-08-22T09:38:14.419Z,64.60
2017-08-22T09:40:41.900Z,61.50
2017-08-22T09:43:09.387Z,60.90
2017-08-22T09:45:36.868Z,60.00
2017-08-22T09:48:04.368Z,60.30
2017-08-22T09:50:31.839Z,60.90
2017-08-22T09:52:59.315Z,60.70
2017-08-22T09:55:26.813Z,61.10
2017-08-22T09:57:54.295Z,60.40
2017-08-22T10:00:21.784Z,60.10
2017-08-22T10:02:49.262Z,60.10
2017-08-22T10:05:16.757Z,58.50
2017-08-22T10:07:44.245Z,59.00
2017-08-22T10:10:11.739Z,59.20
2017-08-22T10:12:39.228Z,59.40
2017-08-22T10:15:06.723Z,57.90
2017-08-22T10:17:34.203Z,58.70
2017-08-22T10:20:01.711Z,58.20
2017-08-22T10:22:29.183Z,59.00
2017-08-22T10:24:56.684Z,58.90
2017-08-22T10:27:24.164Z,58.20
2017-08-22T10:29:51.667Z,58.40
2017-08-22T10:32:19.140Z,58.90
2017-08-22T10:34:46.636Z,59.30
2017-08-22T10:37:14.113Z,56.00
2017-08-22T10:39:41.616Z,55.60
2017-08-22T10:42:09.097Z,55.10
2017-08-22T10:44:36.608Z,56.10
2017-08-22T10:47:04.079Z,56.50
2017-08-22T10:49:31.555Z,57.50
2017-08-22T10:51:59.060Z,57.80
2017-08-22T10:54:26.531Z,57.40
2017-08-22T10:56:54.032Z,57.00
2017-08-22T10:59:21.507Z,56.00
2017-08-22T11:01:49.006Z,55.90
2017-08-22T11:04:16.484Z,56.20
2017-08-22T11:06:43.983Z,55.40
2017-08-22T11:09:11.461Z,56.10
2017-08-22T11:11:38.957Z,55.50
2017-08-22T11:14:06.441Z,55.00
2017-08-22T11:16:33.956Z,53.30
2017-08-22T11:19:01.440Z,53.00
2017-08-22T11:21:28.940Z,53.10
2017-08-22T11:23:56.423Z,56.00
2017-08-22T11:26:23.936Z,53.30
2017-08-22T11:28:51.416Z,54.60
2017-08-22T11:31:18.912Z,54.40
2017-08-22T11:33:46.383Z,53.40
2017-08-22T11:36:13.883Z,53.00
2017-08-22T11:38:41.362Z,53.30
2017-08-22T11:41:08.840Z,54.30
2017-08-22T11:43:36.356Z,53.80
2017-08-22T11:46:03.836Z,53.70
2017-08-22T11:48:31.337Z,53.40
2017-08-22T11:50:58.816Z,53.80
2017-08-22T11:53:26.312Z,54.80
2017-08-22T11:55:53.791Z,54.30
2017-08-22T11:58:21.288Z,54.00
2017-08-22T12:00:48.763Z,53.70
2017-08-22T12:03:16.259Z,53.90
2017-08-22T12:05:43.732Z,54.00
2017-08-22T12:08:11.230Z,54.20
2017-08-22T12:10:38.707Z,55.10
2017-08-22T12:13:06.212Z,54.30
2017-08-22T12:15:33.683Z,54.90
2017-08-22T12:18:01.179Z,54.80
2017-08-22T12:20:28.659Z,55.90
2017-08-22T12:22:56.159Z,54.50
2017-08-22T12:25:23.640Z,54.30
2017-08-22T12:27:51.131Z,55.00
2017-08-22T12:30:18.602Z,55.90
2017-08-22T12:32:46.101Z,57.30
2017-08-22T12:35:13.590Z,57.00
2017-08-22T12:37:41.072Z,57.50
2017-08-22T12:40:08.563Z,55.90
2017-08-22T12:42:36.035Z,56.30
2017-08-22T12:45:03.538Z,55.60
2017-08-22T12:47:31.020Z,55.00
2017-08-22T12:49:58.515Z,55.50
2017-08-22T12:52:25.992Z,56.80
2017-08-22T12:54:53.496Z,57.10
2017-08-22T12:57:20.972Z,55.40
2017-08-22T12:59:48.472Z,56.80
2017-08-22T13:02:15.950Z,56.30
2017-08-22T13:04:43.444Z,55.00
2017-08-22T13:07:10.919Z,55.90
2017-08-22T13:09:38.417Z,55.00
2017-08-22T13:12:05.889Z,54.50
2017-08-22T13:14:33.376Z,55.20
2017-08-22T13:17:00.857Z,55.40
2017-08-22T13:19:28.356Z,55.70
2017-08-22T13:21:55.831Z,56.10
2017-08-22T13:24:23.336Z,56.80
2017-08-22T13:26:50.820Z,55.40
2017-08-22T13:29:18.327Z,55.10
2017-08-22T13:31:45.816Z,55.60
2017-08-22T13:34:13.311Z,54.40
2017-08-22T13:36:40.787Z,53.80
2017-08-22T13:39:08.268Z,54.00
2017-08-22T13:41:35.772Z,54.30
2017-08-22T13:44:03.256Z,55.20
2017-08-22T13:46:30.752Z,55.90
2017-08-22T13:48:58.223Z,55.60
2017-08-22T13:51:25.723Z,55.80
2017-08-22T13:53:53.196Z,55.10
2017-08-22T13:56:20.696Z,54.80
2017-08-22T13:58:48.176Z,54.90
2017-08-22T14:01:15.671Z,55.30
2017-08-22T14:03:43.148Z,56.00
2017-08-22T14:06:10.649Z,56.50
2017-08-22T14:08:38.151Z,55.90
2017-08-22T14:11:05.647Z,55.80
2017-08-22T14:13:33.131Z,56.20
2017-08-22T14:16:00.640Z,55.80
2017-08-22T14:18:28.119Z,57.40
2017-08-22T14:20:55.621Z,57.90
2017-08-22T14:23:23.091Z,58.60
2017-08-22T14:25:50.593Z,57.60
2017-08-22T14:28:18.074Z,57.60
2017-08-22T14:30:45.573Z,57.30
2017-08-22T14:33:13.059Z,57.10
2017-08-22T14:35:40.551Z,56.90
2017-08-22T14:38:08.031Z,57.70
2017-08-22T14:40:35.544Z,57.00
2017-08-22T14:43:03.020Z,57.00
2017-08-22T14:45:30.494Z,57.50
2017-08-22T14:47:57.991Z,56.20
2017-08-22T14:50:25.467Z,57.00
2017-08-22T14:52:52.956Z,57.70
2017-08-22T14:55:20.431Z,56.20
2017-08-22T14:57:47.928Z,55.90
2017-08-22T15:00:15.404Z,57.30
2017-08-22T15:02:42.904Z,57.00
2017-08-22T15:05:10.376Z,57.70
2017-08-22T15:07:37.867Z,57.60
2017-08-22T15:10:05.351Z,57.30
2017-08-22T15:12:32.861Z,57.20
2017-08-22T15:15:00.340Z,57.20
2017-08-22T15:17:27.836Z,57.10
2017-08-22T15:19:55.316Z,57.40
2017-08-22T15:22:22.817Z,57.30
2017-08-22T15:24:50.303Z,58.40
2017-08-22T15:27:17.807Z,58.80
2017-08-22T15:29:45.299Z,59.30
2017-08-22T15:32:12.797Z,59.20
2017-08-22T15:34:40.289Z,61.80
2017-08-22T15:37:07.783Z,59.10
2017-08-22T15:39:36.024Z,58.20
2017-08-22T15:42:03.501Z,58.10
2017-08-22T15:44:30.997Z,58.70
2017-08-22T15:46:58.536Z,58.10
2017-08-22T15:49:26.031Z,58.40
2017-08-22T15:51:53.507Z,58.40
2017-08-22T15:54:20.995Z,58.70
2017-08-22T15:56:48.473Z,58.10
2017-08-22T15:59:15.962Z,58.20
2017-08-22T16:01:43.439Z,58.20
2017-08-22T16:04:10.936Z,58.30
2017-08-22T16:06:38.412Z,59.00
2017-08-22T16:09:05.921Z,58.10
2017-08-22T16:11:33.416Z,58.00
2017-08-22T16:14:00.916Z,57.60
2017-08-22T16:16:28.395Z,58.70
2017-08-22T16:18:55.892Z,57.60
2017-08-22T16:21:23.363Z,57.70
2017-08-22T16:23:50.855Z,57.50
2017-08-22T16:26:18.326Z,57.80
2017-08-22T16:28:45.824Z,59.20
2017-08-22T16:31:13.309Z,59.30
2017-08-22T16:33:40.812Z,58.80
2017-08-22T16:36:08.287Z,58.30
2017-08-22T16:38:35.778Z,58.30
2017-08-22T16:41:03.251Z,58.40
2017-08-22T16:43:30.748Z,58.50
2017-08-22T16:45:58.225Z,58.90
2017-08-22T16:48:25.705Z,58.60
2017-08-22T16:50:53.202Z,58.90
2017-08-22T16:53:20.684Z,58.60
2017-08-22T16:55:48.180Z,58.80
2017-08-22T16:58:15.664Z,58.80
2017-08-22T17:00:43.161Z,59.30
2017-08-22T17:03:10.646Z,59.50
2017-08-22T17:05:38.156Z,59.70
2017-08-22T17:08:05.632Z,60.00
2017-08-22T17:10:33.123Z,59.70
2017-08-22T17:13:00.604Z,60.10
2017-08-22T17:15:28.107Z,60.10
2017-08-22T17:17:55.587Z,59.30
2017-08-22T17:20:23.092Z,59.40
2017-08-22T17:22:50.573Z,60.00
2017-08-22T17:25:18.063Z,60.10
2017-08-22T17:27:45.539Z,60.00
2017-08-22T17:30:13.040Z,59.90
2017-08-22T17:32:40.524Z,60.10
2017-08-22T17:35:08.038Z,59.90
2017-08-22T17:37:36.432Z,59.90
2017-08-22T17:40:03.948Z,60.20
2017-08-22T17:42:31.448Z,61.20
2017-08-22T17:44:58.956Z,60.70
2017-08-22T17:47:26.424Z,61.20
2017-08-22T17:49:53.901Z,62.00
2017-08-22T17:52:21.423Z,62.30
2017-08-22T17:54:48.900Z,62.80
2017-08-22T17:57:16.395Z,62.80
2017-08-22T17:59:43.872Z,63.90
2017-08-22T18:02:11.371Z,65.00
2017-08-22T18:04:38.844Z,65.80
2017-08-22T18:07:06.369Z,66.50
2017-08-22T18:09:33.875Z,67.30
2017-08-22T18:12:01.384Z,68.00
2017-08-22T18:14:29.796Z,67.30
2017-08-22T18:16:57.291Z,68.20
2017-08-22T18:19:24.768Z,67.20
2017-08-22T18:21:52.259Z,67.80
2017-08-22T18:24:19.736Z,68.00
2017-08-22T18:26:47.240Z,69.10
2017-08-22T18:29:14.723Z,69.50
2017-08-22T18:31:42.220Z,69.60
2017-08-22T18:34:09.699Z,69.70
2017-08-22T18:36:37.196Z,70.30
2017-08-22T18:39:04.679Z,69.70
2017-08-22T18:41:32.202Z,69.80
2017-08-22T18:43:59.676Z,70.10
2017-08-22T18:46:27.156Z,70.10
2017-08-22T18:48:54.659Z,70.00
2017-08-22T18:51:22.144Z,70.10
2017-08-22T18:53:49.664Z,70.30
2017-08-22T18:56:17.148Z,69.60
2017-08-22T18:58:44.652Z,68.70
2017-08-22T19:01:12.127Z,69.50
2017-08-22T19:03:39.624Z,69.40
2017-08-22T19:06:07.116Z,70.00
2017-08-22T19:08:51.012Z,70.70
2017-08-22T19:11:18.491Z,71.70
2017-08-22T19:13:46.116Z,72.50
2017-08-22T19:16:13.594Z,73.30
2017-08-22T19:18:41.087Z,74.20
2017-08-22T19:21:08.564Z,74.70
2017-08-22T19:23:36.068Z,74.80
2017-08-22T19:26:03.548Z,75.00
2017-08-22T19:28:31.061Z,75.00
2017-08-22T19:30:58.548Z,75.30
2017-08-22T19:33:26.057Z,76.10
2017-08-22T19:35:53.533Z,76.20
2017-08-22T19:38:21.032Z,75.70
2017-08-22T19:40:48.516Z,75.40
2017-08-22T19:43:16.016Z,75.10
2017-08-22T19:45:43.504Z,75.00
2017-08-22T19:48:11.016Z,75.10
2017-08-22T19:50:38.507Z,75.20
2017-08-22T19:53:05.996Z,75.10
2017-08-22T19:55:33.500Z,75.00
2017-08-22T19:58:00.984Z,74.60
2017-08-22T20:00:28.481Z,74.80
2017-08-22T20:02:55.956Z,74.50
2017-08-22T20:05:23.455Z,74.40
2017-08-22T20:07:50.938Z,74.60
2017-08-22T20:10:18.432Z,73.90
2017-08-22T20:12:45.913Z,73.60
2017-08-22T20:15:13.407Z,73.40
2017-08-22T20:17:40.880Z,73.50
2017-08-22T20:20:08.387Z,73.50
2017-08-22T20:22:35.872Z,73.00
2017-08-22T20:25:03.385Z,72.80
2017-08-22T20:27:30.872Z,72.90
2017-08-22T20:29:58.371Z,73.00
2017-08-22T20:32:25.850Z,72.80
2017-08-22T20:34:53.343Z,73.00
2017-08-22T20:37:20.815Z,73.90
2017-08-22T20:39:48.304Z,73.70
2017-08-22T20:42:15.784Z,74.00
2017-08-22T20:44:43.288Z,74.20
2017-08-22T20:47:10.768Z,74.20
2017-08-22T20:49:38.268Z,74.00
2017-08-22T20:52:05.757Z,73.60
2017-08-22T20:54:33.256Z,73.90
2017-08-22T20:57:00.752Z,73.90
2017-08-22T20:59:28.228Z,74.00
2017-08-22T21:01:55.725Z,74.70
2017-08-22T21:04:23.207Z,75.70
2017-08-22T21:06:50.705Z,75.70
2017-08-22T21:09:18.187Z,75.60
2017-08-22T21:11:45.747Z,76.00
2017-08-22T21:14:13.219Z,75.80
2017-08-22T21:16:40.712Z,75.90
2017-08-22T21:19:08.187Z,75.90
2017-08-22T21:21:35.683Z,75.90
2017-08-22T21:24:03.169Z,76.00
2017-08-22T21:26:30.659Z,75.80
2017-08-22T21:28:58.145Z,75.30
2017-08-22T21:31:25.644Z,75.20
2017-08-22T21:33:53.123Z,75.30
2017-08-22T21:36:20.624Z,75.40
2017-08-22T21:38:48.110Z,75.20
2017-08-22T21:41:15.617Z,75.10
2017-08-22T21:43:43.099Z,74.80
2017-08-22T21:46:10.596Z,74.80
2017-08-22T21:48:38.073Z,74.90
2017-08-22T21:51:05.573Z,75.00
2017-08-22T21:53:33.056Z,74.80
2017-08-22T21:56:00.564Z,74.90
2017-08-22T21:58:28.045Z,75.20
2017-08-22T22:00:55.531Z,75.30
2017-08-22T22:03:23.035Z,75.30
2017-08-22T22:05:50.511Z,75.80
2017-08-22T22:08:18.015Z,75.60
2017-08-22T22:10:45.505Z,75.80
2017-08-22T22:13:13.004Z,76.30
2017-08-22T22:15:40.484Z,76.10
2017-08-22T22:18:07.985Z,75.80
2017-08-22T22:20:35.465Z,75.10
2017-08-22T22:23:02.960Z,75.60
2017-08-22T22:25:30.431Z,75.30
2017-08-22T22:27:57.932Z,75.30
2017-08-22T22:30:25.409Z,75.00
2017-08-22T22:32:52.903Z,75.10
2017-08-22T22:35:20.384Z,75.50
2017-08-22T22:37:47.884Z,75.90
2017-08-22T22:40:15.369Z,76.20
2017-08-22T22:42:42.868Z,76.10
2017-08-22T22:45:10.340Z,76.30
2017-08-22T22:47:37.838Z,76.10
2017-08-22T22:50:05.324Z,76.60
2017-08-22T22:52:32.827Z,78.10
2017-08-22T22:55:00.317Z,78.30
2017-08-22T22:57:27.811Z,79.00
2017-08-22T22:59:55.289Z,79.30
2017-08-22T23:02:22.791Z,78.30
2017-08-22T23:05:32.135Z,78.40
2017-08-22T23:08:00.395Z,78.30
2017-08-22T23:10:27.876Z,78.30
2017-08-22T23:12:55.377Z,78.30
2017-08-22T23:15:22.868Z,78.20
2017-08-22T23:17:50.356Z,78.70
2017-08-22T23:20:17.834Z,79.00
2017-08-22T23:22:45.333Z,79.10
2017-08-22T23:25:12.803Z,78.90
2017-08-22T23:27:40.304Z,79.30
2017-08-22T23:30:07.788Z,79.70
2017-08-22T23:32:35.288Z,80.30
2017-08-22T23:35:02.778Z,80.70
2017-08-22T23:37:30.278Z,80.80
2017-08-22T23:39:57.759Z,81.20
2017-08-22T23:42:25.251Z,81.40
2017-08-22T23:44:52.727Z,81.40
2017-08-22T23:47:20.199Z,81.70
2017-08-22T23:49:47.700Z,81.50
2017-08-22T23:52:15.172Z,81.30
2017-08-22T23:54:42.668Z,81.60
2017-08-22T23:57:10.139Z,82.00
2017-08-22T23:59:37.639Z,82.70
